createdAt,value
2022-10-23T00:01:21.946Z,19.36
2022-10-23T00:03:51.628Z,19.36
2022-10-23T00:06:19.292Z,19.34
2022-10-23T00:08:47.117Z,19.34
2022-10-23T00:11:15.937Z,19.33
2022-10-23T00:13:43.497Z,19.32
2022-10-23T00:16:12.415Z,19.32
2022-10-23T00:18:40.315Z,19.32
2022-10-23T00:21:08.145Z,19.33
2022-10-23T00:23:35.693Z,19.32
2022-10-23T00:26:03.272Z,19.32
2022-10-23T00:28:30.895Z,19.32
2022-10-23T00:30:58.565Z,19.31
2022-10-23T00:33:27.465Z,19.31
2022-10-23T00:35:55.141Z,19.30
2022-10-23T00:38:22.979Z,19.30
2022-10-23T00:43:24.048Z,19.31
2022-10-23T00:45:51.667Z,19.29
2022-10-23T00:48:19.506Z,19.28
2022-10-23T00:50:48.794Z,19.28
2022-10-23T00:53:16.501Z,19.27
2022-10-23T00:55:46.671Z,19.27
2022-10-23T00:58:14.401Z,19.26
2022-10-23T01:00:44.019Z,19.26
2022-10-23T01:03:11.524Z,19.25
2022-10-23T01:05:42.796Z,19.24
2022-10-23T01:08:15.394Z,19.24
2022-10-23T01:10:44.912Z,19.24
2022-10-23T01:13:13.592Z,19.24
2022-10-23T01:15:43.996Z,19.23
2022-10-23T01:18:13.901Z,19.22
2022-10-23T01:20:43.033Z,19.22
2022-10-23T01:23:23.613Z,19.21
2022-10-23T01:25:58.435Z,19.19
2022-10-23T01:28:29.271Z,19.19
2022-10-23T01:30:57.144Z,19.21
2022-10-23T01:33:26.626Z,19.20
2022-10-23T01:35:55.044Z,19.18
2022-10-23T01:38:24.500Z,19.18
2022-10-23T01:40:55.457Z,19.18
2022-10-23T01:43:25.415Z,19.18
2022-10-23T01:45:55.849Z,19.17
2022-10-23T01:48:26.927Z,19.17
2022-10-23T01:50:54.689Z,19.17
2022-10-23T01:53:22.253Z,19.16
2022-10-23T01:55:49.782Z,19.15
2022-10-23T01:58:17.418Z,19.15
2022-10-23T02:00:45.440Z,19.14
2022-10-23T02:03:14.413Z,19.13
2022-10-23T02:05:42.818Z,19.13
2022-10-23T02:08:10.494Z,19.14
2022-10-23T02:10:42.265Z,19.14
2022-10-23T02:13:11.968Z,19.14
2022-10-23T02:15:41.876Z,19.12
2022-10-23T02:18:10.907Z,19.12
2022-10-23T02:23:16.639Z,19.11
2022-10-23T02:25:47.250Z,19.09
2022-10-23T02:28:17.136Z,19.10
2022-10-23T02:30:45.799Z,19.09
2022-10-23T02:33:13.371Z,19.09
2022-10-23T02:35:42.316Z,19.07
2022-10-23T02:38:28.518Z,19.08
2022-10-23T02:40:56.107Z,19.07
2022-10-23T02:43:25.136Z,19.08
2022-10-23T02:45:55.133Z,19.07
2022-10-23T02:48:24.057Z,19.06
2022-10-23T02:50:54.517Z,19.06
2022-10-23T02:53:24.927Z,19.06
2022-10-23T02:55:57.437Z,19.06
2022-10-23T02:58:27.809Z,19.06
2022-10-23T03:00:56.840Z,19.04
2022-10-23T03:03:26.025Z,19.04
2022-10-23T03:05:55.034Z,19.02
2022-10-23T03:08:22.572Z,19.03
2022-10-23T03:10:51.351Z,19.03
2022-10-23T03:13:18.937Z,19.02
2022-10-23T03:15:46.485Z,19.02
2022-10-23T03:18:14.109Z,19.01
2022-10-23T03:20:41.646Z,19.02
2022-10-23T03:23:12.405Z,19.01
2022-10-23T03:25:39.968Z,19.00
2022-10-23T03:28:07.507Z,18.99
2022-10-23T03:30:35.096Z,19.00
2022-10-23T03:33:02.733Z,18.99
2022-10-23T03:35:30.298Z,18.98
2022-10-23T03:37:57.856Z,18.98
2022-10-23T03:40:26.716Z,18.98
2022-10-23T03:42:54.301Z,18.98
2022-10-23T03:45:21.848Z,18.98
2022-10-23T03:47:51.559Z,18.99
2022-10-23T03:50:19.134Z,18.98
2022-10-23T03:52:46.665Z,18.97
2022-10-23T03:55:15.064Z,18.97
2022-10-23T03:57:43.950Z,18.96
2022-10-23T04:00:12.644Z,18.96
2022-10-23T04:02:40.394Z,18.96
2022-10-23T04:05:08.588Z,18.96
2022-10-23T04:07:36.138Z,18.95
2022-10-23T04:10:03.672Z,18.94
2022-10-23T04:12:31.212Z,18.94
2022-10-23T04:15:00.156Z,18.93
2022-10-23T04:20:00.228Z,18.93
2022-10-23T04:22:28.604Z,18.93
2022-10-23T04:24:56.311Z,18.94
2022-10-23T04:27:23.921Z,18.95
2022-10-23T04:29:54.259Z,18.95
2022-10-23T04:32:25.761Z,18.95
2022-10-23T04:34:53.276Z,18.96
2022-10-23T04:37:20.865Z,18.95
2022-10-23T04:39:48.461Z,18.95
2022-10-23T04:42:16.108Z,18.94
2022-10-23T04:44:43.691Z,18.93
2022-10-23T04:47:11.261Z,18.93
2022-10-23T04:49:40.198Z,18.93
2022-10-23T04:52:07.749Z,18.92
2022-10-23T04:54:37.540Z,18.92
2022-10-23T04:57:05.089Z,18.92
2022-10-23T04:59:32.648Z,18.92
2022-10-23T05:02:00.574Z,18.93
2022-10-23T05:04:28.246Z,18.91
2022-10-23T05:06:57.158Z,18.90
2022-10-23T05:09:24.745Z,18.89
2022-10-23T05:11:52.316Z,18.88
2022-10-23T05:14:22.674Z,18.88
2022-10-23T05:16:52.206Z,18.88
2022-10-23T05:19:24.150Z,18.87
2022-10-23T05:21:55.592Z,18.87
2022-10-23T05:24:24.536Z,18.86
2022-10-23T05:26:52.855Z,18.86
2022-10-23T05:29:20.547Z,18.87
2022-10-23T05:31:48.201Z,18.86
2022-10-23T05:34:16.237Z,18.86
2022-10-23T05:36:43.778Z,18.86
2022-10-23T05:39:11.316Z,18.86
2022-10-23T05:41:40.256Z,18.85
2022-10-23T05:44:07.864Z,18.84
2022-10-23T05:46:35.425Z,18.85
2022-10-23T05:49:03.050Z,18.84
2022-10-23T05:51:30.580Z,18.83
2022-10-23T05:53:58.135Z,18.82
2022-10-23T05:56:25.699Z,18.82
2022-10-23T05:58:54.612Z,18.83
2022-10-23T06:01:23.038Z,18.82
2022-10-23T06:03:51.106Z,18.82
2022-10-23T06:06:18.682Z,18.83
2022-10-23T06:08:46.253Z,18.82
2022-10-23T06:11:14.975Z,18.81
2022-10-23T06:13:43.410Z,18.81
2022-10-23T06:16:12.673Z,18.79
2022-10-23T06:18:40.278Z,18.79
2022-10-23T06:21:07.829Z,18.79
2022-10-23T06:23:35.910Z,18.79
2022-10-23T06:26:03.657Z,18.79
2022-10-23T06:28:31.206Z,18.79
2022-10-23T06:30:58.818Z,18.79
2022-10-23T06:33:27.780Z,18.76
2022-10-23T06:35:56.861Z,18.78
2022-10-23T06:38:24.555Z,18.76
2022-10-23T06:40:53.482Z,18.77
2022-10-23T06:43:21.025Z,18.78
2022-10-23T06:45:48.585Z,18.77
2022-10-23T06:48:16.390Z,18.33
2022-10-23T06:50:45.373Z,17.70
2022-10-23T06:53:12.958Z,17.41
2022-10-23T06:55:40.872Z,17.65
2022-10-23T06:58:26.904Z,17.92
2022-10-23T07:01:16.590Z,18.13
2022-10-23T07:04:04.690Z,18.24
2022-10-23T07:06:33.850Z,18.32
2022-10-23T07:09:01.466Z,18.39
2022-10-23T07:11:29.125Z,18.45
2022-10-23T07:13:56.725Z,18.48
2022-10-23T07:16:24.755Z,18.51
2022-10-23T07:18:58.670Z,18.53
2022-10-23T07:21:26.362Z,18.55
2022-10-23T07:23:55.318Z,18.58
2022-10-23T07:26:22.880Z,18.59
2022-10-23T07:28:54.866Z,18.61
2022-10-23T07:31:25.632Z,18.61
2022-10-23T07:33:55.579Z,18.64
2022-10-23T07:36:23.145Z,18.64
2022-10-23T07:38:51.318Z,18.67
2022-10-23T07:41:20.229Z,18.67
2022-10-23T07:43:47.801Z,18.68
2022-10-23T07:46:15.420Z,18.69
2022-10-23T07:48:42.990Z,18.71
2022-10-23T07:51:13.169Z,18.73
2022-10-23T07:53:40.784Z,18.71
2022-10-23T07:56:13.157Z,18.72
2022-10-23T07:58:42.089Z,18.73
2022-10-23T08:01:16.562Z,18.73
2022-10-23T08:03:44.252Z,18.73
2022-10-23T08:06:11.897Z,18.74
2022-10-23T08:08:39.451Z,18.74
2022-10-23T08:11:07.234Z,18.74
2022-10-23T08:13:34.777Z,18.75
2022-10-23T08:16:03.673Z,18.76
2022-10-23T08:18:31.214Z,18.76
2022-10-23T08:21:01.079Z,18.78
2022-10-23T08:23:28.663Z,18.79
2022-10-23T08:25:58.374Z,18.80
2022-10-23T08:28:25.945Z,18.80
2022-10-23T08:30:53.499Z,18.82
2022-10-23T08:33:22.541Z,18.82
2022-10-23T08:35:50.078Z,18.84
2022-10-23T08:38:17.751Z,18.84
2022-10-23T08:40:46.145Z,18.86
2022-10-23T08:43:17.171Z,18.87
2022-10-23T08:45:45.885Z,18.88
2022-10-23T08:48:17.565Z,18.90
2022-10-23T08:50:48.014Z,18.90
2022-10-23T08:53:16.848Z,18.92
2022-10-23T08:55:45.758Z,18.92
2022-10-23T08:58:16.016Z,18.93
2022-10-23T09:00:43.764Z,18.94
2022-10-23T09:03:12.045Z,18.96
2022-10-23T09:05:46.944Z,18.97
2022-10-23T09:08:24.381Z,18.98
2022-10-23T09:11:03.409Z,18.99
2022-10-23T09:14:05.493Z,19.01
2022-10-23T09:16:47.278Z,19.00
2022-10-23T09:19:16.966Z,19.03
2022-10-23T09:21:47.123Z,19.04
2022-10-23T09:24:17.750Z,19.04
2022-10-23T09:26:48.219Z,19.07
2022-10-23T09:29:20.343Z,19.08
2022-10-23T09:31:52.064Z,19.11
2022-10-23T09:34:21.592Z,19.13
2022-10-23T09:39:29.759Z,19.18
2022-10-23T09:41:57.532Z,19.22
2022-10-23T09:44:25.664Z,19.23
2022-10-23T09:46:54.506Z,19.26
2022-10-23T09:49:23.109Z,19.27
2022-10-23T09:52:01.493Z,19.30
2022-10-23T09:54:30.056Z,19.31
2022-10-23T09:57:06.769Z,19.34
2022-10-23T09:59:34.338Z,19.36
2022-10-23T10:02:03.948Z,19.40
2022-10-23T10:04:33.341Z,19.42
2022-10-23T10:07:20.280Z,19.45
2022-10-23T10:09:47.997Z,19.50
2022-10-23T10:12:21.709Z,19.51
2022-10-23T10:14:54.626Z,19.55
2022-10-23T10:17:28.108Z,19.57
2022-10-23T10:20:08.219Z,19.59
2022-10-23T10:22:40.705Z,19.60
2022-10-23T10:25:11.206Z,19.62
2022-10-23T10:27:46.024Z,19.63
2022-10-23T10:30:15.052Z,19.63
2022-10-23T10:32:46.461Z,19.64
2022-10-23T10:35:42.072Z,19.66
2022-10-23T10:38:45.787Z,19.66
2022-10-23T10:41:23.528Z,19.66
2022-10-23T10:43:57.336Z,19.67
2022-10-23T10:46:27.082Z,19.67
2022-10-23T10:48:57.190Z,19.66
2022-10-23T10:51:28.061Z,19.65
2022-10-23T10:54:09.642Z,19.65
2022-10-23T10:56:39.505Z,19.65
2022-10-23T10:59:11.483Z,19.65
2022-10-23T11:01:40.841Z,19.65
2022-10-23T11:04:12.901Z,19.65
2022-10-23T11:06:40.441Z,19.67
2022-10-23T11:09:20.560Z,19.68
2022-10-23T11:11:49.058Z,19.69
2022-10-23T11:14:17.090Z,19.71
2022-10-23T11:16:47.114Z,19.72
2022-10-23T11:19:20.965Z,19.72
2022-10-23T11:21:51.517Z,19.72
2022-10-23T11:24:49.072Z,19.75
2022-10-23T11:27:25.023Z,19.74
2022-10-23T11:30:02.383Z,19.73
2022-10-23T11:32:49.179Z,19.72
2022-10-23T11:35:30.632Z,19.69
2022-10-23T11:38:00.114Z,19.67
2022-10-23T11:40:29.000Z,19.64
2022-10-23T11:42:56.609Z,19.62
2022-10-23T11:45:32.537Z,19.59
2022-10-23T11:48:01.376Z,19.57
2022-10-23T11:50:33.813Z,19.55
2022-10-23T11:53:14.773Z,19.54
2022-10-23T11:55:57.580Z,19.52
2022-10-23T11:58:31.318Z,19.51
2022-10-23T12:01:04.104Z,19.50
2022-10-23T12:03:37.164Z,19.49
2022-10-23T12:06:05.778Z,19.48
2022-10-23T12:08:35.568Z,19.46
2022-10-23T12:11:04.464Z,19.45
2022-10-23T12:13:46.303Z,19.46
2022-10-23T12:16:13.841Z,19.44
2022-10-23T12:18:48.921Z,19.43
2022-10-23T12:21:18.333Z,19.42
2022-10-23T12:24:05.762Z,19.41
2022-10-23T12:26:50.491Z,19.39
2022-10-23T12:29:29.601Z,19.40
2022-10-23T12:31:59.380Z,19.39
2022-10-23T12:34:33.249Z,19.38
2022-10-23T12:37:12.788Z,19.37
2022-10-23T12:39:40.755Z,19.36
2022-10-23T12:42:16.600Z,19.36
2022-10-23T12:44:44.165Z,19.35
2022-10-23T12:47:13.383Z,19.35
2022-10-23T12:49:40.913Z,19.34
2022-10-23T12:52:16.980Z,19.34
2022-10-23T12:54:44.541Z,19.34
2022-10-23T12:57:20.250Z,19.33
2022-10-23T12:59:47.805Z,19.34
2022-10-23T13:02:19.087Z,19.34
2022-10-23T13:04:46.708Z,19.34
2022-10-23T13:07:14.249Z,19.33
2022-10-23T13:09:42.812Z,19.32
2022-10-23T13:12:12.874Z,19.32
2022-10-23T13:14:44.572Z,19.31
2022-10-23T13:17:12.585Z,19.31
2022-10-23T13:19:40.090Z,19.31
2022-10-23T13:22:21.378Z,19.31
2022-10-23T13:24:48.923Z,19.30
2022-10-23T13:27:25.988Z,19.30
2022-10-23T13:29:54.881Z,19.29
2022-10-23T13:32:23.779Z,19.30
2022-10-23T13:35:03.541Z,19.29
2022-10-23T13:37:38.097Z,19.29
2022-10-23T13:40:07.566Z,19.29
2022-10-23T13:42:35.148Z,19.27
2022-10-23T13:45:04.156Z,19.27
2022-10-23T13:47:31.700Z,19.28
2022-10-23T13:49:59.209Z,19.27
2022-10-23T13:52:26.756Z,19.27
2022-10-23T13:54:54.277Z,19.27
2022-10-23T13:57:21.864Z,19.26
2022-10-23T13:59:49.425Z,19.25
2022-10-23T14:02:21.466Z,19.25
2022-10-23T14:04:49.397Z,19.25
2022-10-23T14:07:16.969Z,19.24
2022-10-23T14:09:44.568Z,19.24
2022-10-23T14:12:13.482Z,19.23
2022-10-23T14:14:41.046Z,19.23
2022-10-23T14:17:08.587Z,19.22
2022-10-23T14:22:10.240Z,19.21
2022-10-23T14:24:37.816Z,19.21
2022-10-23T14:27:05.388Z,19.21
2022-10-23T14:29:33.148Z,19.21
2022-10-23T14:32:00.694Z,19.21
2022-10-23T14:34:28.240Z,19.19
2022-10-23T14:37:08.198Z,19.18
2022-10-23T14:39:36.583Z,19.19
2022-10-23T14:42:04.802Z,19.18
2022-10-23T14:44:32.408Z,19.17
2022-10-23T14:47:00.045Z,19.17
2022-10-23T14:49:27.556Z,19.18
2022-10-23T14:51:55.100Z,19.16
2022-10-23T14:54:23.973Z,19.16
2022-10-23T14:56:51.512Z,19.15
2022-10-23T14:59:19.091Z,19.16
2022-10-23T15:01:48.382Z,19.16
2022-10-23T15:04:16.584Z,19.15
2022-10-23T15:06:44.150Z,19.15
2022-10-23T15:09:11.711Z,19.15
2022-10-23T15:11:40.630Z,19.13
2022-10-23T15:14:08.184Z,19.14
2022-10-23T15:16:40.991Z,19.13
2022-10-23T15:19:10.929Z,19.12
2022-10-23T15:21:41.247Z,19.12
2022-10-23T15:24:08.988Z,19.13
2022-10-23T15:26:38.095Z,19.14
2022-10-23T15:29:07.013Z,19.20
2022-10-23T15:31:41.790Z,19.25
2022-10-23T15:34:10.241Z,19.32
2022-10-23T15:36:37.792Z,19.41
2022-10-23T15:39:07.265Z,19.48
2022-10-23T15:41:35.597Z,19.56
2022-10-23T15:44:03.507Z,19.63
2022-10-23T15:46:32.563Z,19.71
2022-10-23T15:49:00.197Z,19.77
2022-10-23T15:51:27.860Z,19.82
2022-10-23T15:53:56.884Z,19.87
2022-10-23T15:56:24.818Z,19.91
2022-10-23T15:58:52.340Z,20.00
2022-10-23T16:01:20.007Z,20.06
2022-10-23T16:03:50.128Z,20.13
2022-10-23T16:06:18.222Z,20.21
2022-10-23T16:08:45.908Z,20.24
2022-10-23T16:11:15.301Z,20.32
2022-10-23T16:13:43.860Z,20.37
2022-10-23T16:16:11.444Z,20.40
2022-10-23T16:18:39.103Z,20.44
2022-10-23T16:21:08.438Z,20.49
2022-10-23T16:23:35.961Z,20.53
2022-10-23T16:26:04.746Z,20.57
2022-10-23T16:28:32.337Z,20.59
2022-10-23T16:31:00.039Z,20.63
2022-10-23T16:33:27.612Z,20.64
2022-10-23T16:35:55.193Z,20.64
2022-10-23T16:38:24.111Z,20.65
2022-10-23T16:40:52.742Z,20.64
2022-10-23T16:43:20.289Z,20.66
2022-10-23T16:45:47.914Z,20.68
2022-10-23T16:48:15.444Z,20.72
2022-10-23T16:50:43.011Z,20.72
2022-10-23T16:53:10.552Z,20.72
2022-10-23T16:55:42.405Z,20.75
2022-10-23T16:58:09.971Z,20.78
2022-10-23T17:00:37.569Z,20.78
2022-10-23T17:03:05.504Z,20.78
2022-10-23T17:05:34.169Z,20.77
2022-10-23T17:08:01.733Z,20.78
2022-10-23T17:10:29.362Z,20.78
2022-10-23T17:12:58.292Z,20.77
2022-10-23T17:15:25.893Z,20.77
2022-10-23T17:17:53.481Z,20.78
2022-10-23T17:20:21.164Z,20.78
2022-10-23T17:22:48.705Z,20.82
2022-10-23T17:25:16.428Z,20.84
2022-10-23T17:27:44.138Z,20.86
2022-10-23T17:30:14.290Z,20.85
2022-10-23T17:32:42.027Z,20.86
2022-10-23T17:35:10.457Z,20.91
2022-10-23T17:37:38.014Z,20.87
2022-10-23T17:40:07.005Z,20.86
2022-10-23T17:42:34.581Z,20.85
2022-10-23T17:45:02.153Z,20.86
2022-10-23T17:47:31.581Z,20.87
2022-10-23T17:49:59.108Z,20.87
2022-10-23T17:52:26.784Z,20.89
2022-10-23T17:54:54.381Z,20.89
2022-10-23T17:59:50.556Z,20.87
2022-10-23T18:02:18.183Z,20.86
2022-10-23T18:04:47.119Z,20.86
2022-10-23T18:07:14.710Z,20.88
2022-10-23T18:09:42.315Z,20.91
2022-10-23T18:12:09.936Z,20.90
2022-10-23T18:14:37.760Z,20.98
2022-10-23T18:17:05.396Z,20.95
2022-10-23T18:19:33.053Z,20.91
2022-10-23T18:22:02.026Z,20.86
2022-10-23T18:24:30.917Z,20.80
2022-10-23T18:26:58.449Z,20.75
2022-10-23T18:29:25.989Z,20.65
2022-10-23T18:31:53.554Z,20.60
2022-10-23T18:34:21.965Z,20.55
2022-10-23T18:36:49.789Z,20.50
2022-10-23T18:39:22.027Z,20.45
2022-10-23T18:41:50.278Z,20.42
2022-10-23T18:44:19.037Z,20.38
2022-10-23T18:46:46.807Z,20.38
2022-10-23T18:49:17.844Z,20.32
2022-10-23T18:51:45.558Z,20.27
2022-10-23T18:54:14.500Z,20.26
2022-10-23T18:56:43.804Z,20.22
2022-10-23T18:59:15.760Z,20.20
2022-10-23T19:01:43.458Z,20.15
2022-10-23T19:04:13.982Z,20.14
2022-10-23T19:06:41.559Z,20.10
2022-10-23T19:09:09.865Z,20.08
2022-10-23T19:11:37.907Z,20.04
2022-10-23T19:14:06.874Z,20.00
2022-10-23T19:16:35.853Z,19.99
2022-10-23T19:19:05.293Z,19.97
2022-10-23T19:21:53.207Z,19.95
2022-10-23T19:24:23.274Z,19.92
2022-10-23T19:26:50.893Z,19.90
2022-10-23T19:29:21.284Z,19.87
2022-10-23T19:31:49.784Z,19.87
2022-10-23T19:34:19.687Z,19.85
2022-10-23T19:36:47.482Z,19.83
2022-10-23T19:39:15.053Z,19.82
2022-10-23T19:41:42.851Z,19.81
2022-10-23T19:44:10.441Z,19.80
2022-10-23T19:46:39.337Z,19.78
2022-10-23T19:49:08.716Z,19.76
2022-10-23T19:51:36.277Z,19.74
2022-10-23T19:54:03.975Z,19.74
2022-10-23T19:56:31.581Z,19.73
2022-10-23T19:58:59.102Z,19.71
2022-10-23T20:01:26.792Z,19.69
2022-10-23T20:03:56.135Z,19.68
2022-10-23T20:06:25.042Z,19.67
2022-10-23T20:08:52.573Z,19.67
2022-10-23T20:11:21.344Z,19.66
2022-10-23T20:13:48.971Z,19.64
2022-10-23T20:16:19.965Z,19.63
2022-10-23T20:18:47.575Z,19.63
2022-10-23T20:21:16.535Z,19.63
2022-10-23T20:23:44.169Z,19.62
2022-10-23T20:26:13.063Z,19.59
2022-10-23T20:28:40.653Z,19.59
2022-10-23T20:31:09.291Z,19.59
2022-10-23T20:33:36.863Z,19.58
2022-10-23T20:36:04.582Z,19.57
2022-10-23T20:38:33.781Z,19.58
2022-10-23T20:41:05.557Z,19.56
2022-10-23T20:43:33.683Z,19.54
2022-10-23T20:46:04.290Z,19.54
2022-10-23T20:48:35.124Z,19.53
2022-10-23T20:51:03.816Z,19.52
2022-10-23T20:53:32.821Z,19.51
2022-10-23T20:56:00.393Z,19.51
2022-10-23T20:58:27.933Z,19.50
2022-10-23T21:00:57.217Z,19.50
2022-10-23T21:03:24.952Z,19.49
2022-10-23T21:05:52.522Z,19.49
2022-10-23T21:08:20.081Z,19.49
2022-10-23T21:10:49.054Z,19.48
2022-10-23T21:13:16.643Z,19.49
2022-10-23T21:15:44.210Z,19.48
2022-10-23T21:18:26.448Z,19.46
2022-10-23T21:21:02.702Z,19.45
2022-10-23T21:23:30.265Z,19.44
2022-10-23T21:26:02.194Z,19.44
2022-10-23T21:28:32.361Z,19.43
2022-10-23T21:31:03.214Z,19.43
2022-10-23T21:33:30.757Z,19.42
2022-10-23T21:36:04.802Z,19.42
2022-10-23T21:38:40.677Z,19.41
2022-10-23T21:41:10.300Z,19.41
2022-10-23T21:43:37.857Z,19.40
2022-10-23T21:46:05.540Z,19.40
2022-10-23T21:48:33.306Z,19.40
2022-10-23T21:51:00.933Z,19.39
2022-10-23T21:53:28.728Z,19.39
2022-10-23T21:55:56.390Z,19.39
2022-10-23T21:58:25.298Z,19.39
2022-10-23T22:00:52.845Z,19.37
2022-10-23T22:03:20.398Z,19.37
2022-10-23T22:05:48.006Z,19.37
2022-10-23T22:08:15.569Z,19.36
2022-10-23T22:10:43.160Z,19.36
2022-10-23T22:13:10.723Z,19.36
2022-10-23T22:15:39.620Z,19.35
2022-10-23T22:18:07.253Z,19.34
2022-10-23T22:20:34.801Z,19.34
2022-10-23T22:23:02.352Z,19.34
2022-10-23T22:25:30.606Z,19.32
2022-10-23T22:27:58.221Z,19.32
2022-10-23T22:30:25.776Z,19.32
2022-10-23T22:32:54.688Z,19.32
2022-10-23T22:35:22.252Z,19.31
2022-10-23T22:37:49.777Z,19.31
2022-10-23T22:40:17.565Z,19.31
2022-10-23T22:42:45.446Z,19.30
2022-10-23T22:45:13.195Z,19.30
2022-10-23T22:47:40.705Z,19.30
2022-10-23T22:50:10.113Z,19.29
2022-10-23T22:52:37.666Z,19.29
2022-10-23T22:55:06.006Z,19.29
2022-10-23T22:57:33.667Z,19.29
2022-10-23T23:00:01.225Z,19.28
2022-10-23T23:02:28.802Z,19.27
2022-10-23T23:04:56.317Z,19.28
2022-10-23T23:07:25.216Z,19.27
2022-10-23T23:09:52.769Z,19.27
2022-10-23T23:12:20.309Z,19.26
2022-10-23T23:14:48.052Z,19.26
2022-10-23T23:17:15.573Z,19.26
2022-10-23T23:19:43.103Z,19.24
2022-10-23T23:22:10.644Z,19.24
2022-10-23T23:24:39.492Z,19.24
2022-10-23T23:27:07.092Z,19.24
2022-10-23T23:29:34.765Z,19.24
2022-10-23T23:32:02.296Z,19.23
2022-10-23T23:34:29.965Z,19.23
2022-10-23T23:36:57.482Z,19.23
2022-10-23T23:39:25.997Z,19.22
2022-10-23T23:42:13.441Z,19.22
2022-10-23T23:44:50.261Z,19.21
2022-10-23T23:47:28.543Z,19.21
2022-10-23T23:49:56.104Z,19.21
2022-10-23T23:52:23.648Z,19.21
2022-10-23T23:54:51.195Z,19.20
2022-10-23T23:57:20.073Z,19.20
2022-10-23T23:59:47.785Z,19.20
